sensor_id;sensor_type;location;lat;lon;timestamp;P1;durP1;ratioP1;P2;durP2;ratioP2
13872;SDS011;7006;51.494;11.964;2023-08-06T00:00:31;8.33;;;6.27;;
13872;SDS011;7006;51.494;11.964;2023-08-06T00:03:00;7.67;;;6.87;;
13872;SDS011;7006;51.494;11.964;2023-08-06T00:05:28;11.57;;;7.00;;
13872;SDS011;7006;51.494;11.964;2023-08-06T00:07:59;10.63;;;7.13;;
13872;SDS011;7006;51.494;11.964;2023-08-06T00:10:28;7.40;;;6.67;;
13872;SDS011;7006;51.494;11.964;2023-08-06T00:12:56;8.27;;;6.57;;
13872;SDS011;7006;51.494;11.964;2023-08-06T00:15:24;8.43;;;6.93;;
13872;SDS011;7006;51.494;11.964;2023-08-06T00:17:52;7.73;;;6.90;;
13872;SDS011;7006;51.494;11.964;2023-08-06T00:20:20;7.90;;;7.03;;
13872;SDS011;7006;51.494;11.964;2023-08-06T00:22:48;7.90;;;6.43;;
13872;SDS011;7006;51.494;11.964;2023-08-06T00:25:19;8.27;;;6.63;;
13872;SDS011;7006;51.494;11.964;2023-08-06T00:27:49;7.10;;;6.40;;
13872;SDS011;7006;51.494;11.964;2023-08-06T00:30:18;9.40;;;6.40;;
13872;SDS011;7006;51.494;11.964;2023-08-06T00:32:47;7.73;;;6.70;;
13872;SDS011;7006;51.494;11.964;2023-08-06T00:35:15;8.50;;;7.43;;
13872;SDS011;7006;51.494;11.964;2023-08-06T00:37:43;8.97;;;7.60;;
13872;SDS011;7006;51.494;11.964;2023-08-06T00:40:12;8.97;;;7.67;;
13872;SDS011;7006;51.494;11.964;2023-08-06T00:42:43;11.97;;;7.57;;
13872;SDS011;7006;51.494;11.964;2023-08-06T00:45:12;11.90;;;7.90;;
13872;SDS011;7006;51.494;11.964;2023-08-06T00:47:40;11.17;;;8.37;;
13872;SDS011;7006;51.494;11.964;2023-08-06T00:50:09;10.50;;;7.87;;
13872;SDS011;7006;51.494;11.964;2023-08-06T00:52:37;11.90;;;8.27;;
13872;SDS011;7006;51.494;11.964;2023-08-06T00:55:06;9.87;;;8.10;;
13872;SDS011;7006;51.494;11.964;2023-08-06T00:57:38;9.60;;;7.73;;
13872;SDS011;7006;51.494;11.964;2023-08-06T01:00:10;8.23;;;7.30;;
13872;SDS011;7006;51.494;11.964;2023-08-06T01:02:40;10.13;;;7.37;;
13872;SDS011;7006;51.494;11.964;2023-08-06T01:05:08;10.33;;;7.73;;
13872;SDS011;7006;51.494;11.964;2023-08-06T01:07:39;9.73;;;7.50;;
13872;SDS011;7006;51.494;11.964;2023-08-06T01:10:16;8.83;;;5.80;;
13872;SDS011;7006;51.494;11.964;2023-08-06T01:12:48;6.87;;;5.00;;
13872;SDS011;7006;51.494;11.964;2023-08-06T01:15:21;7.10;;;4.27;;
13872;SDS011;7006;51.494;11.964;2023-08-06T01:17:52;5.50;;;4.03;;
13872;SDS011;7006;51.494;11.964;2023-08-06T01:20:21;7.03;;;3.27;;
13872;SDS011;7006;51.494;11.964;2023-08-06T01:22:51;3.27;;;2.40;;
13872;SDS011;7006;51.494;11.964;2023-08-06T01:25:20;3.70;;;2.53;;
13872;SDS011;7006;51.494;11.964;2023-08-06T01:27:48;3.40;;;2.50;;
13872;SDS011;7006;51.494;11.964;2023-08-06T01:30:17;3.13;;;2.83;;
13872;SDS011;7006;51.494;11.964;2023-08-06T01:32:48;3.50;;;2.77;;
13872;SDS011;7006;51.494;11.964;2023-08-06T01:35:17;4.20;;;2.67;;
13872;SDS011;7006;51.494;11.964;2023-08-06T01:37:47;5.37;;;2.80;;
13872;SDS011;7006;51.494;11.964;2023-08-06T01:40:18;3.87;;;2.90;;
13872;SDS011;7006;51.494;11.964;2023-08-06T01:42:46;3.03;;;2.70;;
13872;SDS011;7006;51.494;11.964;2023-08-06T01:45:14;3.97;;;2.63;;
13872;SDS011;7006;51.494;11.964;2023-08-06T01:47:42;3.40;;;2.63;;
13872;SDS011;7006;51.494;11.964;2023-08-06T01:50:11;3.13;;;2.37;;
13872;SDS011;7006;51.494;11.964;2023-08-06T01:52:39;3.83;;;2.80;;
13872;SDS011;7006;51.494;11.964;2023-08-06T01:55:07;7.00;;;3.00;;
13872;SDS011;7006;51.494;11.964;2023-08-06T01:57:38;3.17;;;2.70;;
13872;SDS011;7006;51.494;11.964;2023-08-06T02:00:07;3.50;;;2.80;;
13872;SDS011;7006;51.494;11.964;2023-08-06T02:02:35;3.60;;;2.93;;
13872;SDS011;7006;51.494;11.964;2023-08-06T02:05:03;4.60;;;2.90;;
13872;SDS011;7006;51.494;11.964;2023-08-06T02:07:31;3.70;;;2.93;;
13872;SDS011;7006;51.494;11.964;2023-08-06T02:09:59;4.50;;;3.17;;
13872;SDS011;7006;51.494;11.964;2023-08-06T02:12:28;3.47;;;2.80;;
13872;SDS011;7006;51.494;11.964;2023-08-06T02:14:58;3.30;;;2.57;;
13872;SDS011;7006;51.494;11.964;2023-08-06T02:17:27;3.67;;;2.73;;
13872;SDS011;7006;51.494;11.964;2023-08-06T02:19:55;3.20;;;2.80;;
13872;SDS011;7006;51.494;11.964;2023-08-06T02:22:23;3.90;;;3.20;;
13872;SDS011;7006;51.494;11.964;2023-08-06T02:24:51;3.43;;;2.50;;
13872;SDS011;7006;51.494;11.964;2023-08-06T02:27:19;3.40;;;2.40;;
13872;SDS011;7006;51.494;11.964;2023-08-06T02:29:47;4.10;;;2.67;;
13872;SDS011;7006;51.494;11.964;2023-08-06T02:32:18;5.17;;;2.50;;
13872;SDS011;7006;51.494;11.964;2023-08-06T02:34:46;3.23;;;2.43;;
13872;SDS011;7006;51.494;11.964;2023-08-06T02:37:16;3.60;;;2.70;;
13872;SDS011;7006;51.494;11.964;2023-08-06T02:39:44;4.70;;;4.00;;
13872;SDS011;7006;51.494;11.964;2023-08-06T02:42:13;4.70;;;3.00;;
13872;SDS011;7006;51.494;11.964;2023-08-06T02:44:41;3.87;;;2.90;;
13872;SDS011;7006;51.494;11.964;2023-08-06T02:47:10;3.53;;;3.03;;
13872;SDS011;7006;51.494;11.964;2023-08-06T02:49:41;3.00;;;2.60;;
13872;SDS011;7006;51.494;11.964;2023-08-06T02:52:09;2.93;;;2.47;;
13872;SDS011;7006;51.494;11.964;2023-08-06T02:54:37;3.50;;;2.70;;
13872;SDS011;7006;51.494;11.964;2023-08-06T02:57:06;3.53;;;2.67;;
13872;SDS011;7006;51.494;11.964;2023-08-06T02:59:36;3.40;;;2.87;;
13872;SDS011;7006;51.494;11.964;2023-08-06T03:02:04;2.73;;;2.40;;
13872;SDS011;7006;51.494;11.964;2023-08-06T03:04:32;3.93;;;2.93;;
13872;SDS011;7006;51.494;11.964;2023-08-06T03:07:04;5.03;;;2.83;;
13872;SDS011;7006;51.494;11.964;2023-08-06T03:09:33;3.87;;;2.83;;
13872;SDS011;7006;51.494;11.964;2023-08-06T03:12:01;8.13;;;3.63;;
13872;SDS011;7006;51.494;11.964;2023-08-06T03:14:30;3.53;;;3.00;;
13872;SDS011;7006;51.494;11.964;2023-08-06T03:16:58;4.00;;;2.90;;
13872;SDS011;7006;51.494;11.964;2023-08-06T03:19:26;5.43;;;3.03;;
13872;SDS011;7006;51.494;11.964;2023-08-06T03:21:54;4.47;;;3.83;;
13872;SDS011;7006;51.494;11.964;2023-08-06T03:24:25;6.80;;;3.40;;
13872;SDS011;7006;51.494;11.964;2023-08-06T03:26:53;4.43;;;3.60;;
13872;SDS011;7006;51.494;11.964;2023-08-06T03:29:21;6.93;;;3.83;;
13872;SDS011;7006;51.494;11.964;2023-08-06T03:31:49;5.77;;;4.03;;
13872;SDS011;7006;51.494;11.964;2023-08-06T03:34:17;4.63;;;3.70;;
13872;SDS011;7006;51.494;11.964;2023-08-06T03:36:46;6.03;;;4.30;;
13872;SDS011;7006;51.494;11.964;2023-08-06T03:39:14;5.30;;;3.93;;
13872;SDS011;7006;51.494;11.964;2023-08-06T03:41:44;8.17;;;4.53;;
13872;SDS011;7006;51.494;11.964;2023-08-06T03:44:14;4.33;;;3.57;;
13872;SDS011;7006;51.494;11.964;2023-08-06T03:46:43;5.33;;;3.70;;
13872;SDS011;7006;51.494;11.964;2023-08-06T03:49:11;5.40;;;3.97;;
13872;SDS011;7006;51.494;11.964;2023-08-06T03:51:39;4.87;;;4.10;;
13872;SDS011;7006;51.494;11.964;2023-08-06T03:54:08;6.17;;;4.27;;
13872;SDS011;7006;51.494;11.964;2023-08-06T03:56:36;7.43;;;4.90;;
13872;SDS011;7006;51.494;11.964;2023-08-06T03:59:07;4.90;;;4.10;;
13872;SDS011;7006;51.494;11.964;2023-08-06T04:01:35;5.30;;;4.33;;
13872;SDS011;7006;51.494;11.964;2023-08-06T04:04:03;4.57;;;3.60;;
13872;SDS011;7006;51.494;11.964;2023-08-06T04:06:32;4.90;;;4.10;;
13872;SDS011;7006;51.494;11.964;2023-08-06T04:09:00;4.87;;;4.37;;
13872;SDS011;7006;51.494;11.964;2023-08-06T04:11:29;4.77;;;3.77;;
13872;SDS011;7006;51.494;11.964;2023-08-06T04:13:57;5.83;;;3.80;;
13872;SDS011;7006;51.494;11.964;2023-08-06T04:16:28;7.90;;;4.30;;
13872;SDS011;7006;51.494;11.964;2023-08-06T04:18:56;4.50;;;4.10;;
13872;SDS011;7006;51.494;11.964;2023-08-06T04:21:24;4.30;;;3.90;;
13872;SDS011;7006;51.494;11.964;2023-08-06T04:23:53;4.47;;;3.73;;
13872;SDS011;7006;51.494;11.964;2023-08-06T04:26:21;5.40;;;3.90;;
13872;SDS011;7006;51.494;11.964;2023-08-06T04:28:49;5.50;;;4.17;;
13872;SDS011;7006;51.494;11.964;2023-08-06T04:31:17;5.50;;;4.27;;
13872;SDS011;7006;51.494;11.964;2023-08-06T04:33:48;6.57;;;3.90;;
13872;SDS011;7006;51.494;11.964;2023-08-06T04:36:17;4.63;;;4.13;;
13872;SDS011;7006;51.494;11.964;2023-08-06T04:38:45;3.50;;;3.03;;
13872;SDS011;7006;51.494;11.964;2023-08-06T04:41:13;5.87;;;3.83;;
13872;SDS011;7006;51.494;11.964;2023-08-06T04:43:42;3.90;;;3.30;;
13872;SDS011;7006;51.494;11.964;2023-08-06T04:46:10;4.43;;;2.90;;
13872;SDS011;7006;51.494;11.964;2023-08-06T04:48:38;7.33;;;3.43;;
13872;SDS011;7006;51.494;11.964;2023-08-06T04:51:09;6.33;;;3.33;;
13872;SDS011;7006;51.494;11.964;2023-08-06T04:53:37;5.37;;;3.40;;
13872;SDS011;7006;51.494;11.964;2023-08-06T04:56:05;3.63;;;3.20;;
13872;SDS011;7006;51.494;11.964;2023-08-06T04:58:33;5.57;;;3.57;;
13872;SDS011;7006;51.494;11.964;2023-08-06T05:01:01;3.80;;;2.97;;
13872;SDS011;7006;51.494;11.964;2023-08-06T05:03:29;5.37;;;3.30;;
13872;SDS011;7006;51.494;11.964;2023-08-06T05:05:58;3.60;;;3.10;;
13872;SDS011;7006;51.494;11.964;2023-08-06T05:08:28;7.33;;;3.20;;
13872;SDS011;7006;51.494;11.964;2023-08-06T05:10:57;3.00;;;2.70;;
13872;SDS011;7006;51.494;11.964;2023-08-06T05:13:25;4.03;;;3.28;;
13872;SDS011;7006;51.494;11.964;2023-08-06T05:15:53;6.77;;;3.27;;
13872;SDS011;7006;51.494;11.964;2023-08-06T05:18:21;3.30;;;3.00;;
13872;SDS011;7006;51.494;11.964;2023-08-06T05:20:50;3.40;;;3.10;;
13872;SDS011;7006;51.494;11.964;2023-08-06T05:23:18;4.40;;;2.97;;
13872;SDS011;7006;51.494;11.964;2023-08-06T05:25:49;3.13;;;2.83;;
13872;SDS011;7006;51.494;11.964;2023-08-06T05:28:17;3.50;;;2.77;;
13872;SDS011;7006;51.494;11.964;2023-08-06T05:30:45;3.37;;;3.07;;
13872;SDS011;7006;51.494;11.964;2023-08-06T05:33:13;4.13;;;2.90;;
13872;SDS011;7006;51.494;11.964;2023-08-06T05:35:41;4.20;;;2.70;;
13872;SDS011;7006;51.494;11.964;2023-08-06T05:38:09;3.43;;;2.83;;
13872;SDS011;7006;51.494;11.964;2023-08-06T05:40:37;3.70;;;3.20;;
13872;SDS011;7006;51.494;11.964;2023-08-06T05:43:08;5.83;;;4.23;;
13872;SDS011;7006;51.494;11.964;2023-08-06T05:45:36;4.97;;;4.47;;
13872;SDS011;7006;51.494;11.964;2023-08-06T05:48:04;4.43;;;3.97;;
13872;SDS011;7006;51.494;11.964;2023-08-06T05:50:32;4.43;;;4.00;;
13872;SDS011;7006;51.494;11.964;2023-08-06T05:53:00;5.10;;;4.40;;
13872;SDS011;7006;51.494;11.964;2023-08-06T05:55:29;4.57;;;3.77;;
13872;SDS011;7006;51.494;11.964;2023-08-06T05:57:57;4.93;;;3.90;;
13872;SDS011;7006;51.494;11.964;2023-08-06T06:00:28;4.10;;;3.70;;
13872;SDS011;7006;51.494;11.964;2023-08-06T06:02:57;5.53;;;4.53;;
13872;SDS011;7006;51.494;11.964;2023-08-06T06:05:25;3.87;;;3.40;;
13872;SDS011;7006;51.494;11.964;2023-08-06T06:07:53;5.60;;;4.40;;
13872;SDS011;7006;51.494;11.964;2023-08-06T06:10:21;5.43;;;4.50;;
13872;SDS011;7006;51.494;11.964;2023-08-06T06:12:49;5.60;;;4.53;;
13872;SDS011;7006;51.494;11.964;2023-08-06T06:15:17;5.07;;;3.97;;
13872;SDS011;7006;51.494;11.964;2023-08-06T06:17:48;5.07;;;4.57;;
13872;SDS011;7006;51.494;11.964;2023-08-06T06:20:16;5.47;;;4.50;;
13872;SDS011;7006;51.494;11.964;2023-08-06T06:22:44;5.63;;;4.57;;
13872;SDS011;7006;51.494;11.964;2023-08-06T06:25:13;5.10;;;4.00;;
13872;SDS011;7006;51.494;11.964;2023-08-06T06:27:41;5.70;;;4.13;;
13872;SDS011;7006;51.494;11.964;2023-08-06T06:30:09;4.70;;;3.37;;
13872;SDS011;7006;51.494;11.964;2023-08-06T06:32:37;4.40;;;3.53;;
13872;SDS011;7006;51.494;11.964;2023-08-06T06:35:08;5.40;;;4.13;;
13872;SDS011;7006;51.494;11.964;2023-08-06T06:37:37;4.43;;;3.90;;
13872;SDS011;7006;51.494;11.964;2023-08-06T06:40:05;3.53;;;3.00;;
13872;SDS011;7006;51.494;11.964;2023-08-06T06:42:34;6.20;;;3.63;;
13872;SDS011;7006;51.494;11.964;2023-08-06T06:45:02;4.20;;;3.13;;
13872;SDS011;7006;51.494;11.964;2023-08-06T06:47:30;3.90;;;3.07;;
13872;SDS011;7006;51.494;11.964;2023-08-06T06:49:59;4.10;;;3.57;;
13872;SDS011;7006;51.494;11.964;2023-08-06T06:52:29;5.30;;;2.93;;
13872;SDS011;7006;51.494;11.964;2023-08-06T06:54:58;3.90;;;3.13;;
13872;SDS011;7006;51.494;11.964;2023-08-06T06:57:26;4.93;;;3.80;;
13872;SDS011;7006;51.494;11.964;2023-08-06T06:59:54;3.60;;;3.30;;
13872;SDS011;7006;51.494;11.964;2023-08-06T07:02:22;3.80;;;3.40;;
13872;SDS011;7006;51.494;11.964;2023-08-06T07:04:50;4.77;;;3.53;;
13872;SDS011;7006;51.494;11.964;2023-08-06T07:07:18;3.47;;;2.90;;
13872;SDS011;7006;51.494;11.964;2023-08-06T07:09:49;3.83;;;3.17;;
13872;SDS011;7006;51.494;11.964;2023-08-06T07:12:17;3.83;;;3.43;;
13872;SDS011;7006;51.494;11.964;2023-08-06T07:14:47;4.07;;;3.67;;
13872;SDS011;7006;51.494;11.964;2023-08-06T07:17:15;4.90;;;3.40;;
13872;SDS011;7006;51.494;11.964;2023-08-06T07:19:43;3.53;;;3.20;;
13872;SDS011;7006;51.494;11.964;2023-08-06T07:22:11;5.47;;;3.40;;
13872;SDS011;7006;51.494;11.964;2023-08-06T07:24:39;4.03;;;3.23;;
13872;SDS011;7006;51.494;11.964;2023-08-06T07:27:10;3.90;;;3.23;;
13872;SDS011;7006;51.494;11.964;2023-08-06T07:29:38;3.83;;;3.00;;
13872;SDS011;7006;51.494;11.964;2023-08-06T07:32:06;3.97;;;3.57;;
13872;SDS011;7006;51.494;11.964;2023-08-06T07:34:35;4.30;;;3.60;;
13872;SDS011;7006;51.494;11.964;2023-08-06T07:37:03;4.40;;;3.90;;
13872;SDS011;7006;51.494;11.964;2023-08-06T07:39:31;5.43;;;3.33;;
13872;SDS011;7006;51.494;11.964;2023-08-06T07:42:00;3.90;;;3.33;;
13872;SDS011;7006;51.494;11.964;2023-08-06T07:44:33;3.70;;;3.10;;
13872;SDS011;7006;51.494;11.964;2023-08-06T07:47:01;4.87;;;3.73;;
13872;SDS011;7006;51.494;11.964;2023-08-06T07:49:29;3.90;;;3.10;;
13872;SDS011;7006;51.494;11.964;2023-08-06T07:51:57;6.30;;;4.27;;
13872;SDS011;7006;51.494;11.964;2023-08-06T07:54:26;3.80;;;3.13;;
13872;SDS011;7006;51.494;11.964;2023-08-06T07:56:54;4.63;;;3.23;;
13872;SDS011;7006;51.494;11.964;2023-08-06T07:59:22;3.60;;;3.20;;
13872;SDS011;7006;51.494;11.964;2023-08-06T08:01:53;4.03;;;2.80;;
13872;SDS011;7006;51.494;11.964;2023-08-06T08:04:21;4.97;;;2.60;;
13872;SDS011;7006;51.494;11.964;2023-08-06T08:06:49;3.93;;;3.53;;
13872;SDS011;7006;51.494;11.964;2023-08-06T08:09:17;3.80;;;3.10;;
13872;SDS011;7006;51.494;11.964;2023-08-06T08:11:45;3.80;;;3.27;;
13872;SDS011;7006;51.494;11.964;2023-08-06T08:14:14;5.93;;;3.33;;
13872;SDS011;7006;51.494;11.964;2023-08-06T08:16:43;3.77;;;3.17;;
13872;SDS011;7006;51.494;11.964;2023-08-06T08:19:13;3.30;;;2.80;;
13872;SDS011;7006;51.494;11.964;2023-08-06T08:21:41;3.53;;;3.00;;
13872;SDS011;7006;51.494;11.964;2023-08-06T08:24:09;4.30;;;3.23;;
13872;SDS011;7006;51.494;11.964;2023-08-06T08:26:38;4.17;;;3.50;;
13872;SDS011;7006;51.494;11.964;2023-08-06T08:29:06;4.87;;;3.43;;
13872;SDS011;7006;51.494;11.964;2023-08-06T08:31:34;5.53;;;3.30;;
13872;SDS011;7006;51.494;11.964;2023-08-06T08:34:04;4.00;;;3.10;;
13872;SDS011;7006;51.494;11.964;2023-08-06T08:36:35;4.10;;;3.43;;
13872;SDS011;7006;51.494;11.964;2023-08-06T08:39:03;3.80;;;3.27;;
13872;SDS011;7006;51.494;11.964;2023-08-06T08:41:31;3.50;;;3.20;;
13872;SDS011;7006;51.494;11.964;2023-08-06T08:44:01;3.80;;;3.10;;
13872;SDS011;7006;51.494;11.964;2023-08-06T08:46:30;3.80;;;3.40;;
13872;SDS011;7006;51.494;11.964;2023-08-06T08:49:00;3.30;;;2.90;;
13872;SDS011;7006;51.494;11.964;2023-08-06T08:51:29;5.20;;;2.90;;
13872;SDS011;7006;51.494;11.964;2023-08-06T08:54:00;4.30;;;3.30;;
13872;SDS011;7006;51.494;11.964;2023-08-06T08:56:30;5.27;;;3.37;;
13872;SDS011;7006;51.494;11.964;2023-08-06T08:58:59;3.50;;;3.20;;
13872;SDS011;7006;51.494;11.964;2023-08-06T09:01:27;5.43;;;3.57;;
13872;SDS011;7006;51.494;11.964;2023-08-06T09:03:56;4.87;;;3.27;;
13872;SDS011;7006;51.494;11.964;2023-08-06T09:06:25;4.30;;;3.20;;
13872;SDS011;7006;51.494;11.964;2023-08-06T09:09:06;4.43;;;3.23;;
13872;SDS011;7006;51.494;11.964;2023-08-06T09:11:42;4.50;;;3.30;;
13872;SDS011;7006;51.494;11.964;2023-08-06T09:14:13;4.60;;;3.50;;
13872;SDS011;7006;51.494;11.964;2023-08-06T09:16:41;5.07;;;3.60;;
13872;SDS011;7006;51.494;11.964;2023-08-06T09:19:11;4.93;;;3.60;;
13872;SDS011;7006;51.494;11.964;2023-08-06T09:21:40;6.13;;;3.20;;
13872;SDS011;7006;51.494;11.964;2023-08-06T09:24:09;3.83;;;3.17;;
13872;SDS011;7006;51.494;11.964;2023-08-06T09:26:43;5.67;;;3.40;;
13872;SDS011;7006;51.494;11.964;2023-08-06T09:29:11;4.47;;;3.50;;
13872;SDS011;7006;51.494;11.964;2023-08-06T09:31:44;3.90;;;3.40;;
13872;SDS011;7006;51.494;11.964;2023-08-06T09:34:14;4.90;;;3.33;;
13872;SDS011;7006;51.494;11.964;2023-08-06T09:36:43;4.53;;;2.90;;
13872;SDS011;7006;51.494;11.964;2023-08-06T09:39:14;3.97;;;2.87;;
13872;SDS011;7006;51.494;11.964;2023-08-06T09:41:46;3.07;;;2.70;;
13872;SDS011;7006;51.494;11.964;2023-08-06T09:44:18;3.87;;;2.90;;
13872;SDS011;7006;51.494;11.964;2023-08-06T09:46:48;3.43;;;2.90;;
13872;SDS011;7006;51.494;11.964;2023-08-06T09:49:17;2.80;;;2.43;;
13872;SDS011;7006;51.494;11.964;2023-08-06T09:51:45;3.40;;;2.90;;
13872;SDS011;7006;51.494;11.964;2023-08-06T09:54:16;3.73;;;3.23;;
13872;SDS011;7006;51.494;11.964;2023-08-06T09:56:47;3.20;;;2.87;;
13872;SDS011;7006;51.494;11.964;2023-08-06T09:59:15;5.90;;;3.73;;
13872;SDS011;7006;51.494;11.964;2023-08-06T10:01:45;4.70;;;3.40;;
13872;SDS011;7006;51.494;11.964;2023-08-06T10:04:17;3.20;;;2.90;;
13872;SDS011;7006;51.494;11.964;2023-08-06T10:06:54;4.67;;;2.97;;
13872;SDS011;7006;51.494;11.964;2023-08-06T10:09:25;4.20;;;3.53;;
13872;SDS011;7006;51.494;11.964;2023-08-06T10:12:11;5.03;;;3.17;;
13872;SDS011;7006;51.494;11.964;2023-08-06T10:14:45;3.40;;;3.10;;
13872;SDS011;7006;51.494;11.964;2023-08-06T10:17:14;3.27;;;2.97;;
13872;SDS011;7006;51.494;11.964;2023-08-06T10:19:58;4.13;;;2.90;;
13872;SDS011;7006;51.494;11.964;2023-08-06T10:22:27;3.13;;;2.73;;
13872;SDS011;7006;51.494;11.964;2023-08-06T10:24:56;3.20;;;2.63;;
13872;SDS011;7006;51.494;11.964;2023-08-06T10:27:33;5.37;;;2.80;;
13872;SDS011;7006;51.494;11.964;2023-08-06T10:32:47;4.23;;;2.60;;
13872;SDS011;7006;51.494;11.964;2023-08-06T10:35:27;3.43;;;2.73;;
13872;SDS011;7006;51.494;11.964;2023-08-06T10:37:57;3.57;;;2.60;;
13872;SDS011;7006;51.494;11.964;2023-08-06T10:40:25;3.33;;;2.67;;
13872;SDS011;7006;51.494;11.964;2023-08-06T10:42:58;3.07;;;2.10;;
13872;SDS011;7006;51.494;11.964;2023-08-06T10:45:26;3.23;;;2.57;;
13872;SDS011;7006;51.494;11.964;2023-08-06T10:47:55;3.97;;;2.37;;
13872;SDS011;7006;51.494;11.964;2023-08-06T10:50:25;2.97;;;2.50;;
13872;SDS011;7006;51.494;11.964;2023-08-06T10:52:53;2.70;;;2.00;;
13872;SDS011;7006;51.494;11.964;2023-08-06T10:55:22;4.30;;;2.67;;
13872;SDS011;7006;51.494;11.964;2023-08-06T10:57:51;3.77;;;2.27;;
13872;SDS011;7006;51.494;11.964;2023-08-06T11:00:23;2.77;;;2.47;;
13872;SDS011;7006;51.494;11.964;2023-08-06T11:02:51;3.53;;;2.40;;
13872;SDS011;7006;51.494;11.964;2023-08-06T11:05:20;3.07;;;2.60;;
13872;SDS011;7006;51.494;11.964;2023-08-06T11:07:48;3.27;;;2.50;;
13872;SDS011;7006;51.494;11.964;2023-08-06T11:10:17;3.10;;;2.33;;
13872;SDS011;7006;51.494;11.964;2023-08-06T11:12:45;2.83;;;2.20;;
13872;SDS011;7006;51.494;11.964;2023-08-06T11:15:13;2.50;;;2.10;;
13872;SDS011;7006;51.494;11.964;2023-08-06T11:17:44;3.43;;;2.13;;
13872;SDS011;7006;51.494;11.964;2023-08-06T11:20:13;4.23;;;2.57;;
13872;SDS011;7006;51.494;11.964;2023-08-06T11:22:41;5.30;;;2.03;;
13872;SDS011;7006;51.494;11.964;2023-08-06T11:25:09;2.83;;;1.97;;
13872;SDS011;7006;51.494;11.964;2023-08-06T11:27:37;2.57;;;1.83;;
13872;SDS011;7006;51.494;11.964;2023-08-06T11:30:06;2.43;;;1.87;;
13872;SDS011;7006;51.494;11.964;2023-08-06T11:32:46;2.73;;;1.73;;
13872;SDS011;7006;51.494;11.964;2023-08-06T11:35:15;2.30;;;1.70;;
13872;SDS011;7006;51.494;11.964;2023-08-06T11:37:44;2.33;;;1.60;;
13872;SDS011;7006;51.494;11.964;2023-08-06T11:40:13;2.40;;;1.70;;
13872;SDS011;7006;51.494;11.964;2023-08-06T11:42:42;3.90;;;2.00;;
13872;SDS011;7006;51.494;11.964;2023-08-06T11:45:10;2.43;;;1.77;;
13872;SDS011;7006;51.494;11.964;2023-08-06T11:47:39;2.23;;;1.80;;
13872;SDS011;7006;51.494;11.964;2023-08-06T11:50:10;2.73;;;1.90;;
13872;SDS011;7006;51.494;11.964;2023-08-06T11:52:49;3.37;;;2.20;;
13872;SDS011;7006;51.494;11.964;2023-08-06T11:55:22;2.60;;;1.60;;
13872;SDS011;7006;51.494;11.964;2023-08-06T11:57:50;2.20;;;1.70;;
13872;SDS011;7006;51.494;11.964;2023-08-06T12:00:19;2.70;;;1.97;;
13872;SDS011;7006;51.494;11.964;2023-08-06T12:02:47;3.83;;;1.70;;
13872;SDS011;7006;51.494;11.964;2023-08-06T12:05:20;2.47;;;1.83;;
13872;SDS011;7006;51.494;11.964;2023-08-06T12:07:49;2.87;;;2.10;;
13872;SDS011;7006;51.494;11.964;2023-08-06T12:10:18;2.73;;;2.03;;
13872;SDS011;7006;51.494;11.964;2023-08-06T12:12:47;3.80;;;1.90;;
13872;SDS011;7006;51.494;11.964;2023-08-06T12:15:15;2.70;;;1.80;;
13872;SDS011;7006;51.494;11.964;2023-08-06T12:17:44;2.47;;;2.13;;
13872;SDS011;7006;51.494;11.964;2023-08-06T12:20:12;3.00;;;1.90;;
13872;SDS011;7006;51.494;11.964;2023-08-06T12:22:42;2.30;;;1.70;;
13872;SDS011;7006;51.494;11.964;2023-08-06T12:25:11;3.53;;;1.73;;
13872;SDS011;7006;51.494;11.964;2023-08-06T12:27:40;2.57;;;1.73;;
13872;SDS011;7006;51.494;11.964;2023-08-06T12:30:08;2.50;;;2.00;;
13872;SDS011;7006;51.494;11.964;2023-08-06T12:32:37;2.30;;;1.80;;
13872;SDS011;7006;51.494;11.964;2023-08-06T12:35:05;3.27;;;1.90;;
13872;SDS011;7006;51.494;11.964;2023-08-06T12:37:35;3.00;;;2.00;;
13872;SDS011;7006;51.494;11.964;2023-08-06T12:40:06;3.07;;;1.93;;
13872;SDS011;7006;51.494;11.964;2023-08-06T12:42:32;3.20;;;2.00;;
13872;SDS011;7006;51.494;11.964;2023-08-06T12:45:00;2.40;;;1.90;;
13872;SDS011;7006;51.494;11.964;2023-08-06T12:47:28;2.90;;;1.80;;
13872;SDS011;7006;51.494;11.964;2023-08-06T12:49:56;2.97;;;1.97;;
13872;SDS011;7006;51.494;11.964;2023-08-06T12:52:24;2.73;;;1.77;;
13872;SDS011;7006;51.494;11.964;2023-08-06T12:54:52;2.50;;;1.53;;
13872;SDS011;7006;51.494;11.964;2023-08-06T12:57:23;2.53;;;1.67;;
13872;SDS011;7006;51.494;11.964;2023-08-06T12:59:52;3.40;;;1.70;;
13872;SDS011;7006;51.494;11.964;2023-08-06T13:02:20;2.10;;;1.50;;
13872;SDS011;7006;51.494;11.964;2023-08-06T13:04:48;2.30;;;1.60;;
13872;SDS011;7006;51.494;11.964;2023-08-06T13:07:16;3.30;;;2.10;;
13872;SDS011;7006;51.494;11.964;2023-08-06T13:09:44;3.40;;;2.00;;
13872;SDS011;7006;51.494;11.964;2023-08-06T13:12:12;3.00;;;2.10;;
13872;SDS011;7006;51.494;11.964;2023-08-06T13:14:43;4.40;;;1.70;;
13872;SDS011;7006;51.494;11.964;2023-08-06T13:17:11;3.10;;;1.97;;
13872;SDS011;7006;51.494;11.964;2023-08-06T13:19:40;4.00;;;1.83;;
13872;SDS011;7006;51.494;11.964;2023-08-06T13:22:08;2.20;;;1.60;;
13872;SDS011;7006;51.494;11.964;2023-08-06T13:24:36;2.60;;;1.80;;
13872;SDS011;7006;51.494;11.964;2023-08-06T13:27:04;2.30;;;1.63;;
13872;SDS011;7006;51.494;11.964;2023-08-06T13:29:32;3.73;;;1.90;;
13872;SDS011;7006;51.494;11.964;2023-08-06T13:32:03;2.83;;;1.90;;
13872;SDS011;7006;51.494;11.964;2023-08-06T13:34:31;4.30;;;1.50;;
13872;SDS011;7006;51.494;11.964;2023-08-06T13:36:59;2.57;;;1.90;;
13872;SDS011;7006;51.494;11.964;2023-08-06T13:39:27;2.57;;;1.70;;
13872;SDS011;7006;51.494;11.964;2023-08-06T13:41:55;2.70;;;1.90;;
13872;SDS011;7006;51.494;11.964;2023-08-06T13:44:23;2.63;;;1.83;;
13872;SDS011;7006;51.494;11.964;2023-08-06T13:46:51;2.20;;;1.50;;
13872;SDS011;7006;51.494;11.964;2023-08-06T13:49:22;2.80;;;1.97;;
13872;SDS011;7006;51.494;11.964;2023-08-06T13:51:50;2.10;;;1.60;;
13872;SDS011;7006;51.494;11.964;2023-08-06T13:54:18;3.20;;;1.60;;
13872;SDS011;7006;51.494;11.964;2023-08-06T13:56:46;2.60;;;1.60;;
13872;SDS011;7006;51.494;11.964;2023-08-06T13:59:14;3.20;;;1.87;;
13872;SDS011;7006;51.494;11.964;2023-08-06T14:01:44;2.93;;;1.67;;
13872;SDS011;7006;51.494;11.964;2023-08-06T14:04:12;3.33;;;1.60;;
13872;SDS011;7006;51.494;11.964;2023-08-06T14:06:43;2.93;;;1.63;;
13872;SDS011;7006;51.494;11.964;2023-08-06T14:09:11;2.87;;;1.70;;
13872;SDS011;7006;51.494;11.964;2023-08-06T14:11:43;4.97;;;2.03;;
13872;SDS011;7006;51.494;11.964;2023-08-06T14:14:11;2.37;;;1.80;;
13872;SDS011;7006;51.494;11.964;2023-08-06T14:16:39;3.00;;;1.70;;
13872;SDS011;7006;51.494;11.964;2023-08-06T14:19:07;2.20;;;1.43;;
13872;SDS011;7006;51.494;11.964;2023-08-06T14:21:35;2.50;;;1.57;;
13872;SDS011;7006;51.494;11.964;2023-08-06T14:24:06;3.30;;;1.53;;
13872;SDS011;7006;51.494;11.964;2023-08-06T14:26:34;2.23;;;1.57;;
13872;SDS011;7006;51.494;11.964;2023-08-06T14:29:02;3.43;;;1.80;;
13872;SDS011;7006;51.494;11.964;2023-08-06T14:31:30;6.27;;;2.00;;
13872;SDS011;7006;51.494;11.964;2023-08-06T14:33:58;2.60;;;1.63;;
13872;SDS011;7006;51.494;11.964;2023-08-06T14:36:27;3.10;;;1.53;;
13872;SDS011;7006;51.494;11.964;2023-08-06T14:38:55;2.00;;;1.30;;
13872;SDS011;7006;51.494;11.964;2023-08-06T14:41:25;3.40;;;1.77;;
13872;SDS011;7006;51.494;11.964;2023-08-06T14:43:54;2.43;;;1.70;;
13872;SDS011;7006;51.494;11.964;2023-08-06T14:46:22;2.63;;;2.00;;
13872;SDS011;7006;51.494;11.964;2023-08-06T14:48:50;2.97;;;1.80;;
13872;SDS011;7006;51.494;11.964;2023-08-06T14:51:18;2.40;;;1.60;;
13872;SDS011;7006;51.494;11.964;2023-08-06T14:53:46;2.30;;;1.50;;
13872;SDS011;7006;51.494;11.964;2023-08-06T14:56:14;3.90;;;1.90;;
13872;SDS011;7006;51.494;11.964;2023-08-06T14:58:45;3.00;;;2.40;;
13872;SDS011;7006;51.494;11.964;2023-08-06T15:01:13;3.53;;;2.03;;